createdAt,value
2019-05-17T00:01:00.575Z,102125.33
2019-05-17T00:03:30.699Z,102121.67
2019-05-17T00:06:00.823Z,102113.54
2019-05-17T00:08:34.572Z,102104.19
2019-05-17T00:11:02.883Z,102108.03
2019-05-17T00:13:33.020Z,102107.16
2019-05-17T00:16:03.426Z,102105.88
2019-05-17T00:18:33.547Z,102106.23
2019-05-17T00:21:04.510Z,102107.56
2019-05-17T00:23:37.335Z,102110.23
2019-05-17T00:26:07.292Z,102111.11
2019-05-17T00:28:39.117Z,102107.52
2019-05-17T00:31:09.301Z,102115.07
2019-05-17T00:33:41.097Z,102110.12
2019-05-17T00:36:11.373Z,102111.41
2019-05-17T00:38:48.280Z,102115.02
2019-05-17T00:41:13.319Z,102111.27
2019-05-17T00:43:43.446Z,102101.56
2019-05-17T00:46:17.083Z,102105.00
2019-05-17T00:48:46.697Z,102094.30
2019-05-17T00:51:18.248Z,102095.75
2019-05-17T00:53:48.370Z,102089.12
2019-05-17T00:56:18.555Z,102088.66
2019-05-17T00:58:48.745Z,102084.83
2019-05-17T01:01:18.996Z,102080.41
2019-05-17T01:03:49.125Z,102081.09
2019-05-17T01:06:19.264Z,102079.70
2019-05-17T01:09:00.501Z,102086.50
2019-05-17T01:11:21.304Z,102085.57
2019-05-17T01:13:51.418Z,102079.41
2019-05-17T01:16:21.543Z,102084.86
2019-05-17T01:18:51.646Z,102083.94
2019-05-17T01:21:22.942Z,102086.77
2019-05-17T01:23:56.105Z,102085.38
2019-05-17T01:26:26.717Z,102082.09
2019-05-17T01:28:57.415Z,102084.06
2019-05-17T01:31:27.759Z,102073.79
2019-05-17T01:33:57.882Z,102081.45
2019-05-17T01:36:28.020Z,102076.67
2019-05-17T01:38:58.135Z,102078.16
2019-05-17T01:41:28.379Z,102078.52
2019-05-17T01:43:58.496Z,102086.27
2019-05-17T01:46:28.618Z,102081.74
2019-05-17T01:48:58.745Z,102078.36
2019-05-17T01:51:28.960Z,102081.13
2019-05-17T01:53:59.107Z,102073.08
2019-05-17T01:56:29.238Z,102076.81
2019-05-17T01:58:59.398Z,102074.67
2019-05-17T02:01:29.530Z,102073.27
2019-05-17T02:03:59.638Z,102080.92
2019-05-17T02:06:29.793Z,102082.16
2019-05-17T02:08:59.911Z,102074.97
2019-05-17T02:11:31.819Z,102077.13
2019-05-17T02:14:01.941Z,102074.55
2019-05-17T02:16:32.066Z,102081.23
2019-05-17T02:19:02.185Z,102076.86
2019-05-17T02:21:32.307Z,102075.74
2019-05-17T02:24:02.427Z,102078.00
2019-05-17T02:26:32.544Z,102078.30
2019-05-17T02:29:02.658Z,102080.20
2019-05-17T02:31:33.696Z,102078.98
2019-05-17T02:34:04.123Z,102075.07
2019-05-17T02:36:34.255Z,102073.48
2019-05-17T02:39:08.210Z,102071.23
2019-05-17T02:41:38.670Z,102071.84
2019-05-17T02:44:08.825Z,102075.68
2019-05-17T02:46:38.979Z,102068.08
2019-05-17T02:49:09.094Z,102067.50
2019-05-17T02:51:39.255Z,102071.50
2019-05-17T02:54:12.995Z,102074.11
2019-05-17T02:56:43.623Z,102067.66
2019-05-17T02:59:13.734Z,102069.31
2019-05-17T03:01:44.499Z,102074.97
2019-05-17T03:04:14.774Z,102064.59
2019-05-17T03:06:44.931Z,102065.44
2019-05-17T03:09:15.571Z,102062.28
2019-05-17T03:11:45.773Z,102062.88
2019-05-17T03:14:15.868Z,102065.30
2019-05-17T03:16:46.011Z,102058.20
2019-05-17T03:19:16.129Z,102066.81
2019-05-17T03:21:46.292Z,102068.13
2019-05-17T03:24:16.411Z,102060.42
2019-05-17T03:26:46.527Z,102065.83
2019-05-17T03:29:16.649Z,102078.95
2019-05-17T03:31:53.491Z,102071.48
2019-05-17T03:34:19.001Z,102066.10
2019-05-17T03:36:49.283Z,102058.00
2019-05-17T03:39:22.510Z,102073.85
2019-05-17T03:41:53.537Z,102059.41
2019-05-17T03:44:23.250Z,102061.96
2019-05-17T03:46:53.445Z,102062.36
2019-05-17T03:49:23.544Z,102065.36
2019-05-17T03:51:53.678Z,102070.25
2019-05-17T03:54:23.867Z,102068.22
2019-05-17T03:56:53.998Z,102065.27
2019-05-17T03:59:24.472Z,102067.87
2019-05-17T04:01:54.719Z,102055.50
2019-05-17T04:04:24.851Z,102056.55
2019-05-17T04:06:54.962Z,102053.28
2019-05-17T04:09:25.828Z,102051.00
2019-05-17T04:11:55.986Z,102046.91
2019-05-17T04:14:26.092Z,102044.23
2019-05-17T04:16:56.239Z,102044.17
2019-05-17T04:19:26.335Z,102043.10
2019-05-17T04:21:56.519Z,102041.36
2019-05-17T04:24:26.698Z,102049.14
2019-05-17T04:26:56.881Z,102048.24
2019-05-17T04:29:27.014Z,102050.13
2019-05-17T04:31:57.147Z,102039.98
2019-05-17T04:34:27.314Z,102043.87
2019-05-17T04:36:57.573Z,102046.25
2019-05-17T04:39:27.684Z,102034.44
2019-05-17T04:41:58.073Z,102043.94
2019-05-17T04:44:28.319Z,102044.02
2019-05-17T04:46:58.455Z,102035.36
2019-05-17T04:49:28.893Z,102042.73
2019-05-17T04:51:59.025Z,102044.31
2019-05-17T04:54:29.243Z,102047.95
2019-05-17T04:57:02.383Z,102052.88
2019-05-17T04:59:33.772Z,102053.80
2019-05-17T05:02:03.593Z,102050.97
2019-05-17T05:04:38.276Z,102055.49
2019-05-17T05:07:06.065Z,102043.59
2019-05-17T05:09:36.411Z,102043.85
2019-05-17T05:12:06.726Z,102043.86
2019-05-17T05:14:38.018Z,102040.29
2019-05-17T05:17:08.144Z,102035.36
2019-05-17T05:19:38.271Z,102028.77
2019-05-17T05:22:08.477Z,102018.65
2019-05-17T05:24:38.659Z,102019.52
2019-05-17T05:27:08.863Z,102008.61
2019-05-17T05:29:39.005Z,102009.34
2019-05-17T05:32:11.651Z,101998.80
2019-05-17T05:34:42.956Z,101995.97
2019-05-17T05:37:13.097Z,101994.83
2019-05-17T05:39:43.244Z,101990.45
2019-05-17T05:42:14.101Z,101993.64
2019-05-17T05:44:44.343Z,101988.05
2019-05-17T05:47:14.476Z,101984.95
2019-05-17T05:49:44.667Z,101989.30
2019-05-17T05:52:14.829Z,101981.98
2019-05-17T05:54:44.984Z,101975.21
2019-05-17T05:57:15.135Z,101984.11
2019-05-17T05:59:45.304Z,101982.91
2019-05-17T06:02:16.512Z,101987.98
2019-05-17T06:04:46.636Z,101978.38
2019-05-17T06:07:16.775Z,101979.20
2019-05-17T06:09:47.600Z,101983.16
2019-05-17T06:12:23.764Z,101977.69
2019-05-17T06:14:49.550Z,101982.11
2019-05-17T06:17:21.640Z,101981.36
2019-05-17T06:19:51.816Z,101984.98
2019-05-17T06:22:22.496Z,101972.36
2019-05-17T06:24:52.755Z,101980.01
2019-05-17T06:27:22.903Z,101980.44
2019-05-17T06:29:53.026Z,101998.05
2019-05-17T06:32:23.162Z,101980.39
2019-05-17T06:34:53.293Z,101993.39
2019-05-17T06:37:23.440Z,101980.41
2019-05-17T06:39:54.659Z,101980.20
2019-05-17T06:42:37.226Z,101981.52
2019-05-17T06:44:56.641Z,101981.39
2019-05-17T06:47:26.776Z,101973.53
2019-05-17T06:49:56.909Z,101969.38
2019-05-17T06:52:27.060Z,101973.80
2019-05-17T06:54:57.163Z,101977.98
2019-05-17T06:57:27.295Z,101976.09
2019-05-17T06:59:59.327Z,101975.80
2019-05-17T07:02:30.846Z,101971.63
2019-05-17T07:05:04.003Z,101966.92
2019-05-17T07:07:34.218Z,101974.45
2019-05-17T07:10:04.864Z,101969.37
2019-05-17T07:12:34.995Z,101970.77
2019-05-17T07:15:06.034Z,101970.77
2019-05-17T07:17:36.172Z,101974.22
2019-05-17T07:20:06.681Z,101968.09
2019-05-17T07:22:36.827Z,101976.45
2019-05-17T07:25:07.714Z,101978.63
2019-05-17T07:27:42.653Z,101958.08
2019-05-17T07:30:12.056Z,101967.59
2019-05-17T07:32:42.168Z,101954.67
2019-05-17T07:35:14.345Z,101960.17
2019-05-17T07:37:44.499Z,101957.75
2019-05-17T07:40:15.115Z,101952.07
2019-05-17T07:42:45.303Z,101957.80
2019-05-17T07:45:15.827Z,101953.13
2019-05-17T07:47:49.452Z,101946.58
2019-05-17T07:50:20.212Z,101954.34
2019-05-17T07:52:50.356Z,101942.62
2019-05-17T07:55:22.983Z,101948.05
2019-05-17T07:57:52.389Z,101946.09
2019-05-17T08:00:22.655Z,101952.38
2019-05-17T08:02:52.822Z,101938.53
2019-05-17T08:05:23.095Z,101944.36
2019-05-17T08:07:53.231Z,101953.38
2019-05-17T08:10:23.348Z,101933.46
2019-05-17T08:12:53.495Z,101935.90
2019-05-17T08:15:23.754Z,101927.97
2019-05-17T08:17:53.940Z,101928.34
2019-05-17T08:20:24.065Z,101914.83
2019-05-17T08:22:54.332Z,101925.50
2019-05-17T08:25:25.911Z,101931.92
2019-05-17T08:27:56.064Z,101921.73
2019-05-17T08:30:26.595Z,101915.03
2019-05-17T08:32:56.840Z,101912.89
2019-05-17T08:35:27.077Z,101916.77
2019-05-17T08:38:00.358Z,101907.50
2019-05-17T08:40:30.545Z,101912.93
2019-05-17T08:43:00.791Z,101919.00
2019-05-17T08:45:30.947Z,101909.77
2019-05-17T08:48:01.219Z,101902.62
2019-05-17T08:50:31.407Z,101899.83
2019-05-17T08:53:01.558Z,101887.50
2019-05-17T08:55:31.680Z,101888.17
2019-05-17T08:58:01.819Z,101886.55
2019-05-17T09:00:32.020Z,101876.45
2019-05-17T09:03:02.168Z,101884.41
2019-05-17T09:05:33.044Z,101881.91
2019-05-17T09:08:03.204Z,101875.64
2019-05-17T09:10:33.318Z,101869.27
2019-05-17T09:13:03.476Z,101871.93
2019-05-17T09:15:33.614Z,101869.41
2019-05-17T09:18:03.736Z,101871.38
2019-05-17T09:20:33.865Z,101864.27
2019-05-17T09:23:04.021Z,101865.49
2019-05-17T09:25:34.156Z,101862.27
2019-05-17T09:28:04.434Z,101861.69
2019-05-17T09:30:34.551Z,101848.11
2019-05-17T09:35:33.532Z,101862.92
2019-05-17T09:38:03.727Z,101857.69
2019-05-17T09:40:33.954Z,101861.43
2019-05-17T09:43:04.082Z,101854.65
2019-05-17T09:45:34.395Z,101855.00
2019-05-17T09:48:04.857Z,101857.09
2019-05-17T09:50:34.999Z,101857.69
2019-05-17T09:53:05.227Z,101837.46
2019-05-17T09:55:35.351Z,101861.94
2019-05-17T09:58:05.553Z,101835.44
2019-05-17T10:00:36.042Z,101847.44
2019-05-17T10:03:06.189Z,101841.42
2019-05-17T10:05:37.043Z,101850.11
2019-05-17T10:08:07.196Z,101839.95
2019-05-17T10:10:39.996Z,101831.52
2019-05-17T10:13:09.905Z,101833.09
2019-05-17T10:15:40.981Z,101824.70
2019-05-17T10:18:12.484Z,101837.41
2019-05-17T10:20:42.640Z,101832.12
2019-05-17T10:23:12.764Z,101827.92
2019-05-17T10:25:42.906Z,101803.63
2019-05-17T10:28:13.040Z,101820.02
2019-05-17T10:30:43.175Z,101833.59
2019-05-17T10:33:13.314Z,101838.98
2019-05-17T10:35:44.959Z,101833.56
2019-05-17T10:38:15.085Z,101816.83
2019-05-17T10:40:45.188Z,101822.64
2019-05-17T10:43:15.317Z,101835.25
2019-05-17T10:45:46.604Z,101831.94
2019-05-17T10:48:16.730Z,101821.52
2019-05-17T10:50:46.867Z,101827.02
2019-05-17T10:53:17.002Z,101814.55
2019-05-17T10:55:47.153Z,101814.29
2019-05-17T10:58:17.309Z,101813.42
2019-05-17T11:00:49.947Z,101810.38
2019-05-17T11:03:20.361Z,101824.57
2019-05-17T11:05:51.768Z,101815.95
2019-05-17T11:08:22.377Z,101819.13
2019-05-17T11:10:52.545Z,101812.70
2019-05-17T11:13:22.679Z,101824.48
2019-05-17T11:15:52.845Z,101834.88
2019-05-17T11:18:22.987Z,101818.80
2019-05-17T11:20:53.182Z,101813.04
2019-05-17T11:23:23.318Z,101818.39
2019-05-17T11:25:53.525Z,101812.13
2019-05-17T11:28:23.710Z,101812.86
2019-05-17T11:30:53.919Z,101808.81
2019-05-17T11:33:24.062Z,101798.80
2019-05-17T11:35:54.487Z,101795.30
2019-05-17T11:38:24.645Z,101801.64
2019-05-17T11:40:54.783Z,101802.55
2019-05-17T11:43:24.927Z,101793.52
2019-05-17T11:45:55.092Z,101799.45
2019-05-17T11:48:27.042Z,101799.72
2019-05-17T11:50:57.218Z,101789.29
2019-05-17T11:53:27.352Z,101790.08
2019-05-17T11:55:57.742Z,101791.38
2019-05-17T11:58:27.894Z,101786.16
2019-05-17T12:00:58.109Z,101787.79
2019-05-17T12:03:28.249Z,101786.97
2019-05-17T12:05:58.410Z,101747.59
2019-05-17T12:08:28.548Z,101766.27
2019-05-17T12:10:58.933Z,101768.27
2019-05-17T12:13:29.257Z,101770.47
2019-05-17T12:15:59.396Z,101773.53
2019-05-17T12:18:29.544Z,101771.16
2019-05-17T12:20:59.679Z,101776.70
2019-05-17T12:23:29.814Z,101771.44
2019-05-17T12:26:00.080Z,101765.08
2019-05-17T12:28:30.232Z,101759.30
2019-05-17T12:31:00.365Z,101768.30
2019-05-17T12:33:30.533Z,101781.23
2019-05-17T12:36:00.739Z,101757.67
2019-05-17T12:38:30.869Z,101753.17
2019-05-17T12:41:01.031Z,101754.53
2019-05-17T12:43:31.135Z,101747.32
2019-05-17T12:46:01.844Z,101744.38
2019-05-17T12:48:32.236Z,101738.11
2019-05-17T12:51:02.381Z,101738.47
2019-05-17T12:53:32.674Z,101738.06
2019-05-17T12:56:02.830Z,101749.81
2019-05-17T12:58:32.994Z,101749.77
2019-05-17T13:01:03.257Z,101720.55
2019-05-17T13:03:34.894Z,101719.66
2019-05-17T13:06:05.079Z,101724.95
2019-05-17T13:08:35.233Z,101723.44
2019-05-17T13:11:05.388Z,101722.22
2019-05-17T13:13:35.580Z,101711.73
2019-05-17T13:16:17.569Z,101699.58
2019-05-17T13:18:38.747Z,101713.64
2019-05-17T13:21:08.921Z,101711.32
2019-05-17T13:23:39.061Z,101696.56
2019-05-17T13:26:09.248Z,101696.85
2019-05-17T13:28:39.405Z,101696.49
2019-05-17T13:31:09.539Z,101697.09
2019-05-17T13:33:39.650Z,101690.65
2019-05-17T13:36:09.841Z,101704.55
2019-05-17T13:38:39.960Z,101709.45
2019-05-17T13:41:10.094Z,101703.92
2019-05-17T13:43:40.277Z,101695.11
2019-05-17T13:46:10.433Z,101718.31
2019-05-17T13:48:40.550Z,101680.53
2019-05-17T13:51:10.681Z,101675.11
2019-05-17T13:53:40.863Z,101688.76
2019-05-17T13:56:10.988Z,101685.03
2019-05-17T13:58:45.029Z,101681.95
2019-05-17T14:01:15.336Z,101679.39
2019-05-17T14:03:45.553Z,101690.34
2019-05-17T14:06:16.755Z,101702.75
2019-05-17T14:08:46.899Z,101677.66
2019-05-17T14:11:17.055Z,101686.32
2019-05-17T14:13:47.212Z,101678.16
2019-05-17T14:16:17.357Z,101683.23
2019-05-17T14:18:47.500Z,101660.11
2019-05-17T14:21:17.792Z,101652.72
2019-05-17T14:23:47.919Z,101648.64
2019-05-17T14:26:18.067Z,101649.19
2019-05-17T14:28:48.190Z,101648.33
2019-05-17T14:31:19.379Z,101644.75
2019-05-17T14:33:49.545Z,101642.77
2019-05-17T14:36:19.778Z,101652.42
2019-05-17T14:38:50.991Z,101644.26
2019-05-17T14:41:21.146Z,101562.50
2019-05-17T14:43:51.285Z,101637.80
2019-05-17T14:46:21.457Z,101639.25
2019-05-17T14:48:51.594Z,101643.33
2019-05-17T14:51:21.781Z,101650.63
2019-05-17T14:53:51.931Z,101654.72
2019-05-17T14:56:22.033Z,101664.02
2019-05-17T14:58:52.938Z,101643.27
2019-05-17T15:01:23.088Z,101642.17
2019-05-17T15:03:54.314Z,101627.88
2019-05-17T15:06:24.450Z,101641.67
2019-05-17T15:08:54.557Z,101640.36
2019-05-17T15:11:24.727Z,101621.72
2019-05-17T15:13:55.304Z,101611.14
2019-05-17T15:16:25.643Z,101608.29
2019-05-17T15:18:56.853Z,101601.00
2019-05-17T15:21:26.992Z,101606.17
2019-05-17T15:23:57.153Z,101615.91
2019-05-17T15:26:27.262Z,101485.73
2019-05-17T15:28:57.414Z,101591.47
2019-05-17T15:31:27.543Z,101604.94
2019-05-17T15:33:57.721Z,101594.33
2019-05-17T15:36:27.893Z,101617.76
2019-05-17T15:38:58.072Z,101593.09
2019-05-17T15:41:28.252Z,101597.30
2019-05-17T15:43:58.432Z,101596.48
2019-05-17T15:46:28.666Z,101595.08
2019-05-17T15:48:58.772Z,101584.03
2019-05-17T15:51:28.916Z,101582.05
2019-05-17T15:53:59.086Z,101586.20
2019-05-17T15:56:29.205Z,101574.47
2019-05-17T15:58:59.322Z,101568.10
2019-05-17T16:01:29.482Z,101573.17
2019-05-17T16:03:59.608Z,101566.05
2019-05-17T16:06:29.733Z,101575.98
2019-05-17T16:08:59.849Z,101574.36
2019-05-17T16:11:30.001Z,101563.62
2019-05-17T16:14:00.132Z,101589.56
2019-05-17T16:16:30.267Z,101567.85
2019-05-17T16:19:00.430Z,101588.75
2019-05-17T16:21:30.578Z,101574.07
2019-05-17T16:24:00.708Z,101567.64
2019-05-17T16:26:30.838Z,101566.39
2019-05-17T16:29:01.000Z,101557.88
2019-05-17T16:31:31.108Z,101564.91
2019-05-17T16:34:01.228Z,101547.84
2019-05-17T16:36:32.456Z,101548.97
2019-05-17T16:39:02.682Z,101554.66
2019-05-17T16:41:34.091Z,101546.91
2019-05-17T16:44:04.523Z,101549.51
2019-05-17T16:46:34.672Z,101550.02
2019-05-17T16:49:04.803Z,101550.55
2019-05-17T16:51:35.326Z,101549.20
2019-05-17T16:54:05.975Z,101535.51
2019-05-17T16:56:36.188Z,101537.25
2019-05-17T16:59:06.552Z,101531.97
2019-05-17T17:01:36.759Z,101539.88
2019-05-17T17:04:07.165Z,101502.14
2019-05-17T17:06:37.299Z,101527.92
2019-05-17T17:09:08.028Z,101524.48
2019-05-17T17:11:38.176Z,101521.52
2019-05-17T17:14:08.548Z,101531.49
2019-05-17T17:16:38.792Z,101268.94
2019-05-17T17:19:08.976Z,101520.28
2019-05-17T17:21:41.377Z,101522.14
2019-05-17T17:24:11.560Z,101512.89
2019-05-17T17:26:42.800Z,101522.63
2019-05-17T17:29:14.147Z,101514.36
2019-05-17T17:31:44.461Z,101514.62
2019-05-17T17:34:14.620Z,101513.62
2019-05-17T17:36:44.890Z,101515.34
2019-05-17T17:39:15.045Z,101521.66
2019-05-17T17:41:45.322Z,101521.40
2019-05-17T17:44:15.535Z,101522.27
2019-05-17T17:46:45.687Z,101528.53
2019-05-17T17:49:16.000Z,101534.20
2019-05-17T17:51:46.175Z,101531.50
2019-05-17T17:54:17.571Z,101542.71
2019-05-17T17:56:48.051Z,101535.44
2019-05-17T17:59:18.734Z,101539.91
2019-05-17T18:01:48.943Z,101537.41
2019-05-17T18:04:19.129Z,101533.09
2019-05-17T18:06:50.128Z,101536.30
2019-05-17T18:09:20.251Z,101537.02
2019-05-17T18:11:50.393Z,101539.48
2019-05-17T18:14:20.603Z,101531.47
2019-05-17T18:16:50.836Z,101541.20
2019-05-17T18:19:21.297Z,101540.84
2019-05-17T18:21:51.714Z,101544.78
2019-05-17T18:24:21.842Z,101543.27
2019-05-17T18:26:52.003Z,101548.18
2019-05-17T18:29:22.154Z,101545.83
2019-05-17T18:31:52.283Z,101556.91
2019-05-17T18:34:22.450Z,101554.31
2019-05-17T18:36:53.132Z,101562.52
2019-05-17T18:39:23.261Z,101557.47
2019-05-17T18:41:54.908Z,101563.61
2019-05-17T18:44:27.749Z,101565.80
2019-05-17T18:46:57.214Z,101564.70
2019-05-17T18:49:27.364Z,101568.63
2019-05-17T18:51:57.531Z,101563.33
2019-05-17T18:54:27.663Z,101579.70
2019-05-17T18:56:57.813Z,101581.61
2019-05-17T18:59:27.947Z,101571.18
2019-05-17T19:01:58.172Z,101575.36
2019-05-17T19:04:28.300Z,101577.58
2019-05-17T19:06:58.457Z,101573.13
2019-05-17T19:09:28.593Z,101560.66
2019-05-17T19:11:58.765Z,101554.33
2019-05-17T19:14:42.104Z,101561.58
2019-05-17T19:17:01.436Z,101561.09
2019-05-17T19:19:31.588Z,101565.01
2019-05-17T19:22:01.868Z,101575.69
2019-05-17T19:24:32.016Z,101589.59
2019-05-17T19:27:03.261Z,101581.18
2019-05-17T19:29:33.388Z,101577.23
2019-05-17T19:32:03.527Z,101567.19
2019-05-17T19:34:33.660Z,101557.77
2019-05-17T19:37:03.850Z,101546.81
2019-05-17T19:39:34.033Z,101551.44
2019-05-17T19:42:04.182Z,101547.49
2019-05-17T19:44:34.332Z,101550.80
2019-05-17T19:47:04.597Z,101554.86
2019-05-17T19:49:34.730Z,101557.45
2019-05-17T19:52:04.870Z,101559.89
2019-05-17T19:54:36.181Z,101551.41
2019-05-17T19:57:06.324Z,101553.59
2019-05-17T19:59:36.453Z,101544.49
2019-05-17T20:02:06.796Z,101542.91
2019-05-17T20:04:37.936Z,101542.91
2019-05-17T20:07:08.992Z,101533.78
2019-05-17T20:09:39.083Z,101520.27
2019-05-17T20:12:09.251Z,101522.70
2019-05-17T20:14:40.454Z,101521.61
2019-05-17T20:17:12.383Z,101514.45
2019-05-17T20:19:42.558Z,101515.80
2019-05-17T20:22:12.732Z,101500.44
2019-05-17T20:24:42.860Z,101492.63
2019-05-17T20:27:13.057Z,101494.88
2019-05-17T20:29:43.330Z,101484.41
2019-05-17T20:32:13.471Z,101482.35
2019-05-17T20:34:43.591Z,101468.46
2019-05-17T20:37:13.759Z,101461.93
2019-05-17T20:39:44.102Z,101456.27
2019-05-17T20:42:14.243Z,101451.20
2019-05-17T20:44:44.376Z,101468.02
2019-05-17T20:47:14.872Z,101459.53
2019-05-17T20:49:45.015Z,101463.96
2019-05-17T20:52:16.256Z,101453.90
2019-05-17T20:54:46.489Z,101453.75
2019-05-17T20:57:16.628Z,101457.20
2019-05-17T20:59:46.852Z,101457.58
2019-05-17T21:02:17.090Z,101460.17
2019-05-17T21:04:47.198Z,101455.62
2019-05-17T21:07:17.327Z,101449.12
2019-05-17T21:09:47.460Z,101445.08
2019-05-17T21:12:17.584Z,101441.42
2019-05-17T21:14:47.715Z,101443.27
2019-05-17T21:17:18.071Z,101431.81
2019-05-17T21:19:48.172Z,101434.30
2019-05-17T21:22:19.289Z,101432.05
2019-05-17T21:24:49.631Z,101422.36
2019-05-17T21:27:19.756Z,101431.91
2019-05-17T21:29:50.039Z,101427.09
2019-05-17T21:32:20.200Z,101420.63
2019-05-17T21:34:50.314Z,101416.58
2019-05-17T21:37:20.441Z,101419.91
2019-05-17T21:39:50.558Z,101425.81
2019-05-17T21:42:20.695Z,101416.98
2019-05-17T21:44:50.823Z,101418.82
2019-05-17T21:47:20.972Z,101423.86
2019-05-17T21:52:46.272Z,101421.90
2019-05-17T21:55:16.401Z,101429.52
2019-05-17T21:57:46.604Z,101420.06
2019-05-17T22:00:27.033Z,101436.91
2019-05-17T22:02:58.825Z,101425.53
2019-05-17T22:05:28.970Z,101430.98
2019-05-17T22:07:59.095Z,101427.30
2019-05-17T22:10:29.225Z,101425.72
2019-05-17T22:12:59.353Z,101420.55
2019-05-17T22:15:29.524Z,101418.82
2019-05-17T22:17:59.669Z,101411.43
2019-05-17T22:20:30.868Z,101405.42
2019-05-17T22:23:01.221Z,101408.84
2019-05-17T22:25:31.349Z,101399.50
2019-05-17T22:28:01.514Z,101386.09
2019-05-17T22:30:31.742Z,101384.14
2019-05-17T22:33:01.872Z,101384.86
2019-05-17T22:35:32.008Z,101390.75
2019-05-17T22:38:02.149Z,101382.55
2019-05-17T22:40:32.676Z,101380.97
2019-05-17T22:43:02.823Z,101386.64
2019-05-17T22:45:33.056Z,101394.00
2019-05-17T22:48:03.196Z,101379.97
2019-05-17T22:50:33.328Z,101383.16
2019-05-17T22:53:03.479Z,101372.48
2019-05-17T22:55:34.616Z,101372.98
2019-05-17T22:58:04.774Z,101365.61
2019-05-17T23:00:34.899Z,101375.45
2019-05-17T23:03:05.291Z,101354.31
2019-05-17T23:05:35.459Z,101375.19
2019-05-17T23:08:05.619Z,101356.41
2019-05-17T23:10:35.752Z,101361.44
2019-05-17T23:13:05.907Z,101365.61
2019-05-17T23:15:55.032Z,101351.48
2019-05-17T23:18:25.143Z,101358.37
2019-05-17T23:20:55.273Z,101357.83
2019-05-17T23:23:25.425Z,101359.38
2019-05-17T23:25:55.556Z,101356.45
2019-05-17T23:28:25.709Z,101360.64
2019-05-17T23:30:55.841Z,101364.33
2019-05-17T23:33:26.003Z,101356.88
2019-05-17T23:35:56.160Z,101350.30
2019-05-17T23:38:26.389Z,101352.54
2019-05-17T23:40:56.515Z,101354.73
2019-05-17T23:43:26.681Z,101344.27
2019-05-17T23:45:56.804Z,101337.77
2019-05-17T23:48:26.960Z,101340.98
2019-05-17T23:50:57.076Z,101355.22
2019-05-17T23:53:27.508Z,101341.84
2019-05-17T23:55:57.625Z,101342.13
2019-05-17T23:58:27.790Z,101335.58
